sensor_id;sensor_type;location;lat;lon;timestamp;temperature;humidity
62575;DHT22;70119;45.638;11.714;2023-08-20T00:00:17;33.90;42.50
62575;DHT22;70119;45.638;11.714;2023-08-20T00:02:45;33.90;42.50
62575;DHT22;70119;45.638;11.714;2023-08-20T00:05:12;33.90;42.40
62575;DHT22;70119;45.638;11.714;2023-08-20T00:07:39;33.90;42.30
62575;DHT22;70119;45.638;11.714;2023-08-20T00:10:06;33.90;42.30
62575;DHT22;70119;45.638;11.714;2023-08-20T00:12:32;34.00;42.30
62575;DHT22;70119;45.638;11.714;2023-08-20T00:15:00;34.00;42.30
62575;DHT22;70119;45.638;11.714;2023-08-20T00:17:36;33.90;42.30
62575;DHT22;70119;45.638;11.714;2023-08-20T00:20:04;34.00;42.40
62575;DHT22;70119;45.638;11.714;2023-08-20T00:22:36;33.90;42.40
62575;DHT22;70119;45.638;11.714;2023-08-20T00:25:03;34.00;42.50
62575;DHT22;70119;45.638;11.714;2023-08-20T00:27:31;33.90;42.50
62575;DHT22;70119;45.638;11.714;2023-08-20T00:29:57;33.90;42.50
62575;DHT22;70119;45.638;11.714;2023-08-20T00:32:22;34.00;42.40
62575;DHT22;70119;45.638;11.714;2023-08-20T00:34:48;33.90;42.50
62575;DHT22;70119;45.638;11.714;2023-08-20T00:37:14;33.90;42.50
62575;DHT22;70119;45.638;11.714;2023-08-20T00:39:40;33.90;42.50
62575;DHT22;70119;45.638;11.714;2023-08-20T00:42:07;33.90;42.60
62575;DHT22;70119;45.638;11.714;2023-08-20T00:44:33;33.90;42.60
62575;DHT22;70119;45.638;11.714;2023-08-20T00:47:02;33.90;42.60
62575;DHT22;70119;45.638;11.714;2023-08-20T00:49:31;33.90;42.60
62575;DHT22;70119;45.638;11.714;2023-08-20T00:51:58;33.90;42.70
62575;DHT22;70119;45.638;11.714;2023-08-20T00:54:25;34.00;42.80
62575;DHT22;70119;45.638;11.714;2023-08-20T00:56:51;34.00;42.90
62575;DHT22;70119;45.638;11.714;2023-08-20T00:59:18;33.90;42.90
62575;DHT22;70119;45.638;11.714;2023-08-20T01:01:44;33.90;42.90
62575;DHT22;70119;45.638;11.714;2023-08-20T01:04:10;33.90;42.90
62575;DHT22;70119;45.638;11.714;2023-08-20T01:10:01;33.90;43.00
62575;DHT22;70119;45.638;11.714;2023-08-20T01:12:29;33.90;42.90
62575;DHT22;70119;45.638;11.714;2023-08-20T01:14:56;33.90;42.80
62575;DHT22;70119;45.638;11.714;2023-08-20T01:17:22;33.90;42.80
62575;DHT22;70119;45.638;11.714;2023-08-20T01:19:48;33.90;42.80
62575;DHT22;70119;45.638;11.714;2023-08-20T01:30:48;33.90;43.00
62575;DHT22;70119;45.638;11.714;2023-08-20T01:33:14;33.90;42.90
62575;DHT22;70119;45.638;11.714;2023-08-20T01:35:41;33.90;42.90
62575;DHT22;70119;45.638;11.714;2023-08-20T01:38:06;33.90;42.90
62575;DHT22;70119;45.638;11.714;2023-08-20T01:40:33;33.90;42.90
62575;DHT22;70119;45.638;11.714;2023-08-20T01:42:59;33.80;42.90
62575;DHT22;70119;45.638;11.714;2023-08-20T01:45:25;33.80;42.80
62575;DHT22;70119;45.638;11.714;2023-08-20T01:47:52;33.90;42.90
62575;DHT22;70119;45.638;11.714;2023-08-20T01:50:18;33.90;42.80
62575;DHT22;70119;45.638;11.714;2023-08-20T01:52:44;33.90;42.80
62575;DHT22;70119;45.638;11.714;2023-08-20T01:55:11;33.80;42.80
62575;DHT22;70119;45.638;11.714;2023-08-20T01:57:37;33.80;42.90
62575;DHT22;70119;45.638;11.714;2023-08-20T02:00:03;33.90;43.00
62575;DHT22;70119;45.638;11.714;2023-08-20T02:02:31;33.80;42.90
62575;DHT22;70119;45.638;11.714;2023-08-20T02:04:57;33.80;42.90
62575;DHT22;70119;45.638;11.714;2023-08-20T02:07:23;33.80;43.00
62575;DHT22;70119;45.638;11.714;2023-08-20T02:09:49;33.80;43.00
62575;DHT22;70119;45.638;11.714;2023-08-20T02:12:15;33.90;43.10
62575;DHT22;70119;45.638;11.714;2023-08-20T02:14:41;33.90;43.00
62575;DHT22;70119;45.638;11.714;2023-08-20T02:17:07;33.90;43.10
62575;DHT22;70119;45.638;11.714;2023-08-20T02:19:33;33.80;43.00
62575;DHT22;70119;45.638;11.714;2023-08-20T02:21:58;33.90;43.00
62575;DHT22;70119;45.638;11.714;2023-08-20T02:24:24;33.80;43.10
62575;DHT22;70119;45.638;11.714;2023-08-20T02:26:50;33.80;43.10
62575;DHT22;70119;45.638;11.714;2023-08-20T02:29:16;33.80;43.10
62575;DHT22;70119;45.638;11.714;2023-08-20T02:31:42;33.80;43.10
62575;DHT22;70119;45.638;11.714;2023-08-20T02:34:08;33.90;43.00
62575;DHT22;70119;45.638;11.714;2023-08-20T02:36:34;33.80;43.10
62575;DHT22;70119;45.638;11.714;2023-08-20T02:38:59;33.80;43.10
62575;DHT22;70119;45.638;11.714;2023-08-20T02:41:25;33.80;43.10
62575;DHT22;70119;45.638;11.714;2023-08-20T02:43:51;33.90;43.10
62575;DHT22;70119;45.638;11.714;2023-08-20T02:46:17;33.90;43.10
62575;DHT22;70119;45.638;11.714;2023-08-20T02:48:43;33.90;43.00
62575;DHT22;70119;45.638;11.714;2023-08-20T02:51:08;33.80;43.00
62575;DHT22;70119;45.638;11.714;2023-08-20T02:53:34;33.90;43.10
62575;DHT22;70119;45.638;11.714;2023-08-20T02:56:00;33.90;43.10
62575;DHT22;70119;45.638;11.714;2023-08-20T02:58:26;33.90;43.10
62575;DHT22;70119;45.638;11.714;2023-08-20T03:00:52;33.80;43.10
62575;DHT22;70119;45.638;11.714;2023-08-20T03:03:18;33.80;43.00
62575;DHT22;70119;45.638;11.714;2023-08-20T03:05:44;33.80;43.00
62575;DHT22;70119;45.638;11.714;2023-08-20T03:08:10;33.80;43.10
62575;DHT22;70119;45.638;11.714;2023-08-20T03:10:36;33.80;43.00
62575;DHT22;70119;45.638;11.714;2023-08-20T03:13:02;33.80;43.00
62575;DHT22;70119;45.638;11.714;2023-08-20T03:15:29;33.80;43.00
62575;DHT22;70119;45.638;11.714;2023-08-20T03:17:55;33.90;43.00
62575;DHT22;70119;45.638;11.714;2023-08-20T03:20:20;33.80;43.00
62575;DHT22;70119;45.638;11.714;2023-08-20T03:22:46;33.80;43.10
62575;DHT22;70119;45.638;11.714;2023-08-20T03:25:12;33.90;43.10
62575;DHT22;70119;45.638;11.714;2023-08-20T03:27:38;33.90;43.10
62575;DHT22;70119;45.638;11.714;2023-08-20T03:30:05;33.90;43.20
62575;DHT22;70119;45.638;11.714;2023-08-20T03:32:31;33.80;43.20
62575;DHT22;70119;45.638;11.714;2023-08-20T03:34:57;33.80;43.20
62575;DHT22;70119;45.638;11.714;2023-08-20T03:37:25;33.80;43.20
62575;DHT22;70119;45.638;11.714;2023-08-20T03:39:51;33.80;43.20
62575;DHT22;70119;45.638;11.714;2023-08-20T03:42:17;33.80;43.20
62575;DHT22;70119;45.638;11.714;2023-08-20T03:44:43;33.80;43.20
62575;DHT22;70119;45.638;11.714;2023-08-20T03:47:09;33.80;43.30
62575;DHT22;70119;45.638;11.714;2023-08-20T03:49:35;33.80;43.30
62575;DHT22;70119;45.638;11.714;2023-08-20T03:52:01;33.80;43.30
62575;DHT22;70119;45.638;11.714;2023-08-20T03:54:28;33.80;43.20
62575;DHT22;70119;45.638;11.714;2023-08-20T03:56:55;33.80;43.20
62575;DHT22;70119;45.638;11.714;2023-08-20T03:59:21;33.80;43.20
62575;DHT22;70119;45.638;11.714;2023-08-20T04:01:47;33.80;43.20
62575;DHT22;70119;45.638;11.714;2023-08-20T04:04:13;33.80;43.30
62575;DHT22;70119;45.638;11.714;2023-08-20T04:06:39;33.80;43.30
62575;DHT22;70119;45.638;11.714;2023-08-20T04:09:05;33.80;43.30
62575;DHT22;70119;45.638;11.714;2023-08-20T04:11:32;33.80;43.30
62575;DHT22;70119;45.638;11.714;2023-08-20T04:13:57;33.80;43.30
62575;DHT22;70119;45.638;11.714;2023-08-20T04:16:24;33.80;43.30
62575;DHT22;70119;45.638;11.714;2023-08-20T04:18:50;33.80;43.30
62575;DHT22;70119;45.638;11.714;2023-08-20T04:21:15;33.80;43.30
62575;DHT22;70119;45.638;11.714;2023-08-20T04:23:41;33.80;43.30
62575;DHT22;70119;45.638;11.714;2023-08-20T04:26:07;33.80;43.30
62575;DHT22;70119;45.638;11.714;2023-08-20T04:28:33;33.80;43.30
62575;DHT22;70119;45.638;11.714;2023-08-20T04:30:59;33.80;43.30
62575;DHT22;70119;45.638;11.714;2023-08-20T04:33:26;33.80;43.10
62575;DHT22;70119;45.638;11.714;2023-08-20T04:35:52;33.70;43.00
62575;DHT22;70119;45.638;11.714;2023-08-20T04:38:18;33.80;43.00
62575;DHT22;70119;45.638;11.714;2023-08-20T04:40:48;33.80;42.90
62575;DHT22;70119;45.638;11.714;2023-08-20T04:43:15;33.80;43.00
62575;DHT22;70119;45.638;11.714;2023-08-20T04:45:41;33.70;43.10
62575;DHT22;70119;45.638;11.714;2023-08-20T04:48:08;33.70;43.20
62575;DHT22;70119;45.638;11.714;2023-08-20T04:50:34;33.80;43.10
62575;DHT22;70119;45.638;11.714;2023-08-20T04:53:00;33.70;43.10
62575;DHT22;70119;45.638;11.714;2023-08-20T04:55:27;33.70;43.10
62575;DHT22;70119;45.638;11.714;2023-08-20T04:57:53;33.80;43.10
62575;DHT22;70119;45.638;11.714;2023-08-20T05:00:19;33.80;43.10
62575;DHT22;70119;45.638;11.714;2023-08-20T05:02:45;33.80;43.10
62575;DHT22;70119;45.638;11.714;2023-08-20T05:05:12;33.80;43.10
62575;DHT22;70119;45.638;11.714;2023-08-20T05:07:37;33.80;43.20
62575;DHT22;70119;45.638;11.714;2023-08-20T05:10:04;33.90;43.20
62575;DHT22;70119;45.638;11.714;2023-08-20T05:12:30;33.90;43.10
62575;DHT22;70119;45.638;11.714;2023-08-20T05:14:56;33.90;43.10
62575;DHT22;70119;45.638;11.714;2023-08-20T05:17:22;33.80;43.10
62575;DHT22;70119;45.638;11.714;2023-08-20T05:19:48;33.80;43.00
62575;DHT22;70119;45.638;11.714;2023-08-20T05:22:14;33.80;43.00
62575;DHT22;70119;45.638;11.714;2023-08-20T05:24:39;33.80;43.00
62575;DHT22;70119;45.638;11.714;2023-08-20T05:27:13;33.80;43.00
62575;DHT22;70119;45.638;11.714;2023-08-20T05:29:40;33.80;43.10
62575;DHT22;70119;45.638;11.714;2023-08-20T05:32:08;33.80;43.10
62575;DHT22;70119;45.638;11.714;2023-08-20T05:34:34;33.90;42.80
62575;DHT22;70119;45.638;11.714;2023-08-20T05:37:00;33.90;42.40
62575;DHT22;70119;45.638;11.714;2023-08-20T05:39:26;33.90;42.10
62575;DHT22;70119;45.638;11.714;2023-08-20T05:41:55;33.90;41.70
62575;DHT22;70119;45.638;11.714;2023-08-20T05:44:21;33.90;41.50
62575;DHT22;70119;45.638;11.714;2023-08-20T05:46:47;33.90;41.20
62575;DHT22;70119;45.638;11.714;2023-08-20T05:49:14;33.80;41.10
62575;DHT22;70119;45.638;11.714;2023-08-20T05:51:42;33.80;40.90
62575;DHT22;70119;45.638;11.714;2023-08-20T05:54:12;33.80;40.80
62575;DHT22;70119;45.638;11.714;2023-08-20T05:57:02;33.80;40.70
62575;DHT22;70119;45.638;11.714;2023-08-20T05:59:29;33.80;40.60
62575;DHT22;70119;45.638;11.714;2023-08-20T06:01:55;33.80;40.50
62575;DHT22;70119;45.638;11.714;2023-08-20T06:04:21;33.80;40.40
62575;DHT22;70119;45.638;11.714;2023-08-20T06:06:48;33.70;40.30
62575;DHT22;70119;45.638;11.714;2023-08-20T06:09:15;33.70;40.20
62575;DHT22;70119;45.638;11.714;2023-08-20T06:11:41;33.70;40.10
62575;DHT22;70119;45.638;11.714;2023-08-20T06:14:07;33.70;40.00
62575;DHT22;70119;45.638;11.714;2023-08-20T06:16:33;33.60;40.00
62575;DHT22;70119;45.638;11.714;2023-08-20T06:18:58;33.60;39.90
62575;DHT22;70119;45.638;11.714;2023-08-20T06:21:24;33.70;39.90
62575;DHT22;70119;45.638;11.714;2023-08-20T06:23:50;33.60;39.80
62575;DHT22;70119;45.638;11.714;2023-08-20T06:26:16;33.60;39.80
62575;DHT22;70119;45.638;11.714;2023-08-20T06:28:42;33.60;39.70
62575;DHT22;70119;45.638;11.714;2023-08-20T06:31:08;33.60;39.60
62575;DHT22;70119;45.638;11.714;2023-08-20T06:33:33;33.60;39.50
62575;DHT22;70119;45.638;11.714;2023-08-20T06:35:59;33.60;39.50
62575;DHT22;70119;45.638;11.714;2023-08-20T06:38:25;33.60;39.40
62575;DHT22;70119;45.638;11.714;2023-08-20T06:40:51;33.60;39.40
62575;DHT22;70119;45.638;11.714;2023-08-20T06:43:17;33.60;39.30
62575;DHT22;70119;45.638;11.714;2023-08-20T06:45:42;33.60;39.30
62575;DHT22;70119;45.638;11.714;2023-08-20T06:48:08;33.60;39.30
62575;DHT22;70119;45.638;11.714;2023-08-20T06:50:34;33.60;39.20
62575;DHT22;70119;45.638;11.714;2023-08-20T06:53:00;33.60;39.10
62575;DHT22;70119;45.638;11.714;2023-08-20T06:55:26;33.60;39.30
62575;DHT22;70119;45.638;11.714;2023-08-20T06:57:52;33.60;39.20
62575;DHT22;70119;45.638;11.714;2023-08-20T07:00:17;33.60;39.10
62575;DHT22;70119;45.638;11.714;2023-08-20T07:02:44;33.60;39.10
62575;DHT22;70119;45.638;11.714;2023-08-20T07:05:11;33.60;39.10
62575;DHT22;70119;45.638;11.714;2023-08-20T07:07:41;33.60;39.10
62575;DHT22;70119;45.638;11.714;2023-08-20T07:10:08;33.60;39.10
62575;DHT22;70119;45.638;11.714;2023-08-20T07:12:34;33.60;39.00
62575;DHT22;70119;45.638;11.714;2023-08-20T07:14:59;33.60;39.00
62575;DHT22;70119;45.638;11.714;2023-08-20T07:17:25;33.60;39.10
62575;DHT22;70119;45.638;11.714;2023-08-20T07:19:51;33.60;39.00
62575;DHT22;70119;45.638;11.714;2023-08-20T07:22:17;33.60;39.00
62575;DHT22;70119;45.638;11.714;2023-08-20T07:24:43;33.60;39.00
62575;DHT22;70119;45.638;11.714;2023-08-20T07:27:09;33.60;39.00
62575;DHT22;70119;45.638;11.714;2023-08-20T07:29:38;33.60;39.00
62575;DHT22;70119;45.638;11.714;2023-08-20T07:32:04;33.60;39.00
62575;DHT22;70119;45.638;11.714;2023-08-20T07:34:30;33.60;39.10
62575;DHT22;70119;45.638;11.714;2023-08-20T07:36:56;33.60;39.10
62575;DHT22;70119;45.638;11.714;2023-08-20T07:39:22;33.60;39.10
62575;DHT22;70119;45.638;11.714;2023-08-20T07:41:48;33.60;39.00
62575;DHT22;70119;45.638;11.714;2023-08-20T07:44:14;33.60;39.00
62575;DHT22;70119;45.638;11.714;2023-08-20T07:46:40;33.60;39.10
62575;DHT22;70119;45.638;11.714;2023-08-20T07:49:05;33.60;39.10
62575;DHT22;70119;45.638;11.714;2023-08-20T07:51:31;33.60;39.10
62575;DHT22;70119;45.638;11.714;2023-08-20T07:53:57;33.60;39.10
62575;DHT22;70119;45.638;11.714;2023-08-20T07:56:24;33.60;39.10
62575;DHT22;70119;45.638;11.714;2023-08-20T07:58:50;33.60;39.10
62575;DHT22;70119;45.638;11.714;2023-08-20T08:01:16;33.60;39.10
62575;DHT22;70119;45.638;11.714;2023-08-20T08:03:42;33.50;39.20
62575;DHT22;70119;45.638;11.714;2023-08-20T08:06:08;33.60;39.20
62575;DHT22;70119;45.638;11.714;2023-08-20T08:08:34;33.60;39.20
62575;DHT22;70119;45.638;11.714;2023-08-20T08:11:00;33.60;39.30
62575;DHT22;70119;45.638;11.714;2023-08-20T08:13:26;33.60;39.30
62575;DHT22;70119;45.638;11.714;2023-08-20T08:15:52;33.60;39.30
62575;DHT22;70119;45.638;11.714;2023-08-20T08:18:19;33.60;39.30
62575;DHT22;70119;45.638;11.714;2023-08-20T08:20:45;33.60;39.20
62575;DHT22;70119;45.638;11.714;2023-08-20T08:23:11;33.60;39.20
62575;DHT22;70119;45.638;11.714;2023-08-20T08:25:37;33.60;39.10
62575;DHT22;70119;45.638;11.714;2023-08-20T08:28:03;33.60;39.10
62575;DHT22;70119;45.638;11.714;2023-08-20T08:30:29;33.60;39.00
62575;DHT22;70119;45.638;11.714;2023-08-20T08:32:55;33.60;39.00
62575;DHT22;70119;45.638;11.714;2023-08-20T08:35:21;33.60;39.10
62575;DHT22;70119;45.638;11.714;2023-08-20T08:37:47;33.60;39.20
62575;DHT22;70119;45.638;11.714;2023-08-20T08:40:13;33.60;39.30
62575;DHT22;70119;45.638;11.714;2023-08-20T08:42:40;33.60;39.30
62575;DHT22;70119;45.638;11.714;2023-08-20T08:45:09;33.60;39.40
62575;DHT22;70119;45.638;11.714;2023-08-20T08:47:36;33.60;39.30
62575;DHT22;70119;45.638;11.714;2023-08-20T08:50:02;33.60;39.10
62575;DHT22;70119;45.638;11.714;2023-08-20T08:52:28;33.60;39.20
62575;DHT22;70119;45.638;11.714;2023-08-20T08:54:54;33.60;39.20
62575;DHT22;70119;45.638;11.714;2023-08-20T08:57:20;33.60;39.20
62575;DHT22;70119;45.638;11.714;2023-08-20T08:59:46;33.60;39.20
62575;DHT22;70119;45.638;11.714;2023-08-20T09:02:13;33.60;39.10
62575;DHT22;70119;45.638;11.714;2023-08-20T09:04:40;33.60;39.10
62575;DHT22;70119;45.638;11.714;2023-08-20T09:07:11;33.60;39.20
62575;DHT22;70119;45.638;11.714;2023-08-20T09:09:42;33.60;39.20
62575;DHT22;70119;45.638;11.714;2023-08-20T09:12:19;33.60;39.30
62575;DHT22;70119;45.638;11.714;2023-08-20T09:14:50;33.60;39.30
62575;DHT22;70119;45.638;11.714;2023-08-20T09:17:16;33.60;39.20
62575;DHT22;70119;45.638;11.714;2023-08-20T09:19:45;33.60;39.20
62575;DHT22;70119;45.638;11.714;2023-08-20T09:22:14;33.60;39.10
62575;DHT22;70119;45.638;11.714;2023-08-20T09:24:51;33.60;39.30
62575;DHT22;70119;45.638;11.714;2023-08-20T09:27:17;33.60;39.30
62575;DHT22;70119;45.638;11.714;2023-08-20T09:29:52;33.60;39.40
62575;DHT22;70119;45.638;11.714;2023-08-20T09:32:23;33.60;39.50
62575;DHT22;70119;45.638;11.714;2023-08-20T09:34:50;33.60;39.60
62575;DHT22;70119;45.638;11.714;2023-08-20T09:37:19;33.60;39.60
62575;DHT22;70119;45.638;11.714;2023-08-20T09:39:45;33.60;39.70
62575;DHT22;70119;45.638;11.714;2023-08-20T09:42:12;33.60;39.60
62575;DHT22;70119;45.638;11.714;2023-08-20T09:44:42;33.60;39.40
62575;DHT22;70119;45.638;11.714;2023-08-20T09:47:13;33.60;39.50
62575;DHT22;70119;45.638;11.714;2023-08-20T09:49:46;33.60;39.50
62575;DHT22;70119;45.638;11.714;2023-08-20T09:52:24;33.60;39.40
62575;DHT22;70119;45.638;11.714;2023-08-20T09:55:06;33.60;39.40
62575;DHT22;70119;45.638;11.714;2023-08-20T09:57:36;33.60;39.30
62575;DHT22;70119;45.638;11.714;2023-08-20T10:00:06;33.60;39.10
62575;DHT22;70119;45.638;11.714;2023-08-20T10:02:35;33.60;39.00
62575;DHT22;70119;45.638;11.714;2023-08-20T10:05:05;33.60;39.00
62575;DHT22;70119;45.638;11.714;2023-08-20T10:07:32;33.60;38.90
62575;DHT22;70119;45.638;11.714;2023-08-20T10:10:02;33.60;38.80
62575;DHT22;70119;45.638;11.714;2023-08-20T10:12:29;33.60;38.80
62575;DHT22;70119;45.638;11.714;2023-08-20T10:14:56;33.50;38.70
62575;DHT22;70119;45.638;11.714;2023-08-20T10:17:29;33.60;38.60
62575;DHT22;70119;45.638;11.714;2023-08-20T10:19:57;33.50;38.60
62575;DHT22;70119;45.638;11.714;2023-08-20T10:22:38;33.60;38.60
62575;DHT22;70119;45.638;11.714;2023-08-20T10:25:09;33.50;38.50
62575;DHT22;70119;45.638;11.714;2023-08-20T10:27:38;33.50;38.50
62575;DHT22;70119;45.638;11.714;2023-08-20T10:30:25;33.50;38.40
62575;DHT22;70119;45.638;11.714;2023-08-20T10:32:52;33.50;38.40
62575;DHT22;70119;45.638;11.714;2023-08-20T10:35:23;33.50;38.40
62575;DHT22;70119;45.638;11.714;2023-08-20T10:38:06;33.50;38.40
62575;DHT22;70119;45.638;11.714;2023-08-20T10:40:54;33.50;38.30
62575;DHT22;70119;45.638;11.714;2023-08-20T10:43:39;33.50;38.40
62575;DHT22;70119;45.638;11.714;2023-08-20T10:46:18;33.50;38.40
62575;DHT22;70119;45.638;11.714;2023-08-20T10:48:48;33.40;38.40
62575;DHT22;70119;45.638;11.714;2023-08-20T10:54:02;33.40;38.30
62575;DHT22;70119;45.638;11.714;2023-08-20T10:59:29;33.40;38.20
62575;DHT22;70119;45.638;11.714;2023-08-20T11:01:59;33.40;38.20
62575;DHT22;70119;45.638;11.714;2023-08-20T11:04:28;33.40;38.20
62575;DHT22;70119;45.638;11.714;2023-08-20T11:06:56;33.40;38.20
62575;DHT22;70119;45.638;11.714;2023-08-20T11:09:23;33.40;38.20
62575;DHT22;70119;45.638;11.714;2023-08-20T11:11:50;33.30;38.10
62575;DHT22;70119;45.638;11.714;2023-08-20T11:14:18;33.40;38.20
62575;DHT22;70119;45.638;11.714;2023-08-20T11:16:45;33.40;38.10
62575;DHT22;70119;45.638;11.714;2023-08-20T11:19:12;33.40;38.00
62575;DHT22;70119;45.638;11.714;2023-08-20T11:21:39;33.30;38.10
62575;DHT22;70119;45.638;11.714;2023-08-20T11:24:08;33.40;37.90
62575;DHT22;70119;45.638;11.714;2023-08-20T11:26:41;33.30;37.90
62575;DHT22;70119;45.638;11.714;2023-08-20T11:29:08;33.40;37.80
62575;DHT22;70119;45.638;11.714;2023-08-20T11:31:38;33.40;37.70
62575;DHT22;70119;45.638;11.714;2023-08-20T11:34:04;33.40;37.60
62575;DHT22;70119;45.638;11.714;2023-08-20T11:36:30;33.40;37.40
62575;DHT22;70119;45.638;11.714;2023-08-20T11:38:57;33.30;37.30
62575;DHT22;70119;45.638;11.714;2023-08-20T11:41:24;33.30;37.30
62575;DHT22;70119;45.638;11.714;2023-08-20T11:43:51;33.30;37.10
62575;DHT22;70119;45.638;11.714;2023-08-20T11:46:19;33.30;37.10
62575;DHT22;70119;45.638;11.714;2023-08-20T11:49:05;33.30;37.20
62575;DHT22;70119;45.638;11.714;2023-08-20T11:51:38;33.30;37.40
62575;DHT22;70119;45.638;11.714;2023-08-20T11:54:11;33.30;37.20
62575;DHT22;70119;45.638;11.714;2023-08-20T11:56:52;33.40;37.10
62575;DHT22;70119;45.638;11.714;2023-08-20T11:59:19;33.40;37.10
62575;DHT22;70119;45.638;11.714;2023-08-20T12:02:00;33.30;36.90
62575;DHT22;70119;45.638;11.714;2023-08-20T12:04:29;33.30;36.90
62575;DHT22;70119;45.638;11.714;2023-08-20T12:07:08;33.30;36.80
62575;DHT22;70119;45.638;11.714;2023-08-20T12:09:35;33.30;36.70
62575;DHT22;70119;45.638;11.714;2023-08-20T12:12:01;33.30;36.60
62575;DHT22;70119;45.638;11.714;2023-08-20T12:14:27;33.30;36.70
62575;DHT22;70119;45.638;11.714;2023-08-20T12:16:54;33.30;36.70
62575;DHT22;70119;45.638;11.714;2023-08-20T12:19:21;33.30;36.60
62575;DHT22;70119;45.638;11.714;2023-08-20T12:21:47;33.30;36.50
62575;DHT22;70119;45.638;11.714;2023-08-20T12:24:13;33.30;36.50
62575;DHT22;70119;45.638;11.714;2023-08-20T12:26:39;33.30;36.50
62575;DHT22;70119;45.638;11.714;2023-08-20T12:29:06;33.30;36.50
62575;DHT22;70119;45.638;11.714;2023-08-20T12:31:32;33.30;36.40
62575;DHT22;70119;45.638;11.714;2023-08-20T12:33:59;33.30;36.30
62575;DHT22;70119;45.638;11.714;2023-08-20T12:36:25;33.30;36.20
62575;DHT22;70119;45.638;11.714;2023-08-20T12:38:51;33.30;36.30
62575;DHT22;70119;45.638;11.714;2023-08-20T12:41:16;33.30;36.40
62575;DHT22;70119;45.638;11.714;2023-08-20T12:43:42;33.30;36.50
62575;DHT22;70119;45.638;11.714;2023-08-20T12:46:08;33.30;36.40
62575;DHT22;70119;45.638;11.714;2023-08-20T12:48:34;33.30;36.30
62575;DHT22;70119;45.638;11.714;2023-08-20T12:51:00;33.30;36.20
62575;DHT22;70119;45.638;11.714;2023-08-20T12:53:26;33.30;36.20
62575;DHT22;70119;45.638;11.714;2023-08-20T12:55:51;33.30;36.20
62575;DHT22;70119;45.638;11.714;2023-08-20T12:58:17;33.20;36.30
62575;DHT22;70119;45.638;11.714;2023-08-20T13:00:43;33.30;36.50
62575;DHT22;70119;45.638;11.714;2023-08-20T13:03:09;33.30;36.80
62575;DHT22;70119;45.638;11.714;2023-08-20T13:05:35;33.30;37.10
62575;DHT22;70119;45.638;11.714;2023-08-20T13:08:02;33.30;37.30
62575;DHT22;70119;45.638;11.714;2023-08-20T13:10:28;33.40;37.40
62575;DHT22;70119;45.638;11.714;2023-08-20T13:12:54;33.30;37.50
62575;DHT22;70119;45.638;11.714;2023-08-20T13:15:23;33.40;37.60
62575;DHT22;70119;45.638;11.714;2023-08-20T13:17:50;33.40;37.70
62575;DHT22;70119;45.638;11.714;2023-08-20T13:20:17;33.50;37.70
62575;DHT22;70119;45.638;11.714;2023-08-20T13:22:51;33.50;37.80
62575;DHT22;70119;45.638;11.714;2023-08-20T13:25:17;33.50;37.90
62575;DHT22;70119;45.638;11.714;2023-08-20T13:27:43;33.50;38.00
62575;DHT22;70119;45.638;11.714;2023-08-20T13:30:10;33.50;38.10
62575;DHT22;70119;45.638;11.714;2023-08-20T13:32:36;33.60;38.20
62575;DHT22;70119;45.638;11.714;2023-08-20T13:35:02;33.60;38.00
62575;DHT22;70119;45.638;11.714;2023-08-20T13:37:33;33.60;37.70
62575;DHT22;70119;45.638;11.714;2023-08-20T13:39:59;33.60;37.60
62575;DHT22;70119;45.638;11.714;2023-08-20T13:42:25;33.60;37.40
62575;DHT22;70119;45.638;11.714;2023-08-20T13:44:51;33.60;37.20
62575;DHT22;70119;45.638;11.714;2023-08-20T13:47:17;33.50;37.10
62575;DHT22;70119;45.638;11.714;2023-08-20T13:49:43;33.60;37.00
62575;DHT22;70119;45.638;11.714;2023-08-20T13:52:10;33.60;36.80
62575;DHT22;70119;45.638;11.714;2023-08-20T13:54:36;33.60;36.80
62575;DHT22;70119;45.638;11.714;2023-08-20T13:57:05;33.60;36.70
62575;DHT22;70119;45.638;11.714;2023-08-20T13:59:31;33.50;36.60
62575;DHT22;70119;45.638;11.714;2023-08-20T14:01:58;33.50;36.50
62575;DHT22;70119;45.638;11.714;2023-08-20T14:04:24;33.40;36.40
62575;DHT22;70119;45.638;11.714;2023-08-20T14:06:50;33.40;36.30
62575;DHT22;70119;45.638;11.714;2023-08-20T14:09:16;33.40;36.20
62575;DHT22;70119;45.638;11.714;2023-08-20T14:11:45;33.40;36.10
62575;DHT22;70119;45.638;11.714;2023-08-20T14:14:12;33.30;36.00
62575;DHT22;70119;45.638;11.714;2023-08-20T14:16:38;33.30;35.90
62575;DHT22;70119;45.638;11.714;2023-08-20T14:19:04;33.30;36.00
62575;DHT22;70119;45.638;11.714;2023-08-20T14:21:30;33.30;35.70
62575;DHT22;70119;45.638;11.714;2023-08-20T14:23:55;33.30;35.50
62575;DHT22;70119;45.638;11.714;2023-08-20T14:26:24;33.20;35.40
62575;DHT22;70119;45.638;11.714;2023-08-20T14:28:51;33.20;35.40
62575;DHT22;70119;45.638;11.714;2023-08-20T14:31:17;33.20;35.30
62575;DHT22;70119;45.638;11.714;2023-08-20T14:33:48;33.20;35.30
62575;DHT22;70119;45.638;11.714;2023-08-20T14:36:15;33.10;35.30
62575;DHT22;70119;45.638;11.714;2023-08-20T14:38:42;33.10;35.10
62575;DHT22;70119;45.638;11.714;2023-08-20T14:41:09;33.10;35.20
62575;DHT22;70119;45.638;11.714;2023-08-20T14:43:35;33.10;35.10
62575;DHT22;70119;45.638;11.714;2023-08-20T14:46:02;33.10;35.10
62575;DHT22;70119;45.638;11.714;2023-08-20T14:48:29;33.10;35.10
62575;DHT22;70119;45.638;11.714;2023-08-20T14:50:55;33.10;35.00
62575;DHT22;70119;45.638;11.714;2023-08-20T14:53:21;33.10;34.90
62575;DHT22;70119;45.638;11.714;2023-08-20T14:55:47;33.00;35.10
62575;DHT22;70119;45.638;11.714;2023-08-20T14:58:12;33.10;35.20
62575;DHT22;70119;45.638;11.714;2023-08-20T15:00:39;33.10;35.30
62575;DHT22;70119;45.638;11.714;2023-08-20T15:03:05;33.10;35.50
62575;DHT22;70119;45.638;11.714;2023-08-20T15:05:32;33.10;35.50
62575;DHT22;70119;45.638;11.714;2023-08-20T15:07:58;33.10;35.40
62575;DHT22;70119;45.638;11.714;2023-08-20T15:10:24;33.10;35.40
62575;DHT22;70119;45.638;11.714;2023-08-20T15:12:50;33.10;35.40
62575;DHT22;70119;45.638;11.714;2023-08-20T15:15:16;33.10;35.30
62575;DHT22;70119;45.638;11.714;2023-08-20T15:17:42;33.10;35.20
62575;DHT22;70119;45.638;11.714;2023-08-20T15:20:08;33.10;35.20
62575;DHT22;70119;45.638;11.714;2023-08-20T15:22:37;33.10;35.20
62575;DHT22;70119;45.638;11.714;2023-08-20T15:25:05;33.10;35.10
62575;DHT22;70119;45.638;11.714;2023-08-20T15:27:37;33.10;35.10
62575;DHT22;70119;45.638;11.714;2023-08-20T15:30:04;33.10;35.00
62575;DHT22;70119;45.638;11.714;2023-08-20T15:32:30;33.10;35.00